createdAt,value
2018-12-14T00:00:05.953Z,77.40
2018-12-14T00:01:05.147Z,77.40
2018-12-14T00:02:05.286Z,77.40
2018-12-14T00:03:05.425Z,77.40
2018-12-14T00:04:08.011Z,77.30
2018-12-14T00:05:05.007Z,77.40
2018-12-14T00:06:05.161Z,77.40
2018-12-14T00:07:07.735Z,77.40
2018-12-14T00:08:08.181Z,77.40
2018-12-14T00:09:05.278Z,77.40
2018-12-14T00:10:05.421Z,77.50
2018-12-14T00:11:08.135Z,77.50
2018-12-14T00:12:05.078Z,77.50
2018-12-14T00:13:07.670Z,77.90
2018-12-14T00:14:05.739Z,77.60
2018-12-14T00:15:05.878Z,77.60
2018-12-14T00:16:05.015Z,77.60
2018-12-14T00:17:05.147Z,77.60
2018-12-14T00:18:05.292Z,77.70
2018-12-14T00:19:05.420Z,77.70
2018-12-14T00:20:08.164Z,77.80
2018-12-14T00:21:05.270Z,77.80
2018-12-14T00:22:08.130Z,77.80
2018-12-14T00:23:05.131Z,77.80
2018-12-14T00:24:05.263Z,77.80
2018-12-14T00:25:05.407Z,77.80
2018-12-14T00:26:05.563Z,77.90
2018-12-14T00:27:05.800Z,77.80
2018-12-14T00:28:06.006Z,77.90
2018-12-14T00:29:05.423Z,77.90
2018-12-14T00:30:05.656Z,77.90
2018-12-14T00:31:08.506Z,78.00
2018-12-14T00:32:05.892Z,78.00
2018-12-14T00:33:05.170Z,78.00
2018-12-14T00:34:07.882Z,78.10
2018-12-14T00:35:08.412Z,78.10
2018-12-14T00:36:05.339Z,78.10
2018-12-14T00:37:05.437Z,78.10
2018-12-14T00:38:05.619Z,78.10
2018-12-14T00:39:05.903Z,78.10
2018-12-14T00:40:05.234Z,78.20
2018-12-14T00:41:05.384Z,78.20
2018-12-14T00:42:05.521Z,78.20
2018-12-14T00:43:05.793Z,78.30
2018-12-14T00:44:05.926Z,78.40
2018-12-14T00:45:05.084Z,78.40
2018-12-14T00:46:05.278Z,78.50
2018-12-14T00:47:05.438Z,78.60
2018-12-14T00:48:05.502Z,78.60
2018-12-14T00:49:08.303Z,78.70
2018-12-14T00:50:05.323Z,78.70
2018-12-14T00:51:07.986Z,78.80
2018-12-14T00:52:06.017Z,78.90
2018-12-14T00:53:05.146Z,79.00
2018-12-14T00:54:05.334Z,79.10
2018-12-14T00:55:08.303Z,79.30
2018-12-14T00:56:05.288Z,79.30
2018-12-14T00:57:05.406Z,79.30
2018-12-14T00:58:08.046Z,79.60
2018-12-14T00:59:05.075Z,79.60
2018-12-14T01:00:05.294Z,79.70
2018-12-14T01:01:05.560Z,79.80
2018-12-14T01:02:05.672Z,79.80
2018-12-14T01:03:05.844Z,79.90
2018-12-14T01:04:05.938Z,80.00
2018-12-14T01:05:07.543Z,80.20
2018-12-14T01:06:05.478Z,80.20
2018-12-14T01:07:05.644Z,80.10
2018-12-14T01:08:05.825Z,80.20
2018-12-14T01:09:08.508Z,80.40
2018-12-14T01:10:07.964Z,80.50
2018-12-14T01:11:05.939Z,80.40
2018-12-14T01:12:05.122Z,80.40
2018-12-14T01:13:05.294Z,80.40
2018-12-14T01:14:13.129Z,80.50
2018-12-14T01:15:05.200Z,80.50
2018-12-14T01:16:05.321Z,80.50
2018-12-14T01:17:08.062Z,80.70
2018-12-14T01:18:05.116Z,80.60
2018-12-14T01:19:05.292Z,80.60
2018-12-14T01:20:10.641Z,80.40
2018-12-14T01:21:05.658Z,80.40
2018-12-14T01:22:08.306Z,80.30
2018-12-14T01:23:05.277Z,80.20
2018-12-14T01:24:08.026Z,80.00
2018-12-14T01:25:05.065Z,80.00
2018-12-14T01:26:07.714Z,79.70
2018-12-14T01:27:08.361Z,79.60
2018-12-14T01:28:05.308Z,79.60
2018-12-14T01:29:05.445Z,79.60
2018-12-14T01:30:05.610Z,79.60
2018-12-14T01:31:05.770Z,79.70
2018-12-14T01:32:05.878Z,79.60
2018-12-14T01:33:05.238Z,79.60
2018-12-14T01:34:05.435Z,79.60
2018-12-14T01:35:08.100Z,79.60
2018-12-14T01:36:12.782Z,79.60
2018-12-14T01:37:05.760Z,79.60
2018-12-14T01:38:05.997Z,79.60
2018-12-14T01:39:05.201Z,79.60
2018-12-14T01:40:05.338Z,79.40
2018-12-14T01:41:08.139Z,79.20
2018-12-14T01:42:05.579Z,79.20
2018-12-14T01:43:08.306Z,78.80
2018-12-14T01:44:05.365Z,78.80
2018-12-14T01:45:08.097Z,78.30
2018-12-14T01:46:05.060Z,78.30
2018-12-14T01:47:05.174Z,77.70
2018-12-14T01:48:05.383Z,77.10
2018-12-14T01:49:05.530Z,76.40
2018-12-14T01:50:08.226Z,75.50
2018-12-14T01:51:05.183Z,75.40
2018-12-14T01:52:05.292Z,74.70
2018-12-14T01:53:05.386Z,74.20
2018-12-14T01:54:05.505Z,74.10
2018-12-14T01:55:08.144Z,74.00
2018-12-14T01:56:05.109Z,74.00
2018-12-14T01:57:07.766Z,74.30
2018-12-14T01:58:05.799Z,74.30
2018-12-14T01:59:05.915Z,74.30
2018-12-14T02:00:05.029Z,74.10
2018-12-14T02:01:05.183Z,74.20
2018-12-14T02:02:05.300Z,74.40
2018-12-14T02:03:07.932Z,73.90
2018-12-14T02:04:08.439Z,73.60
2018-12-14T02:05:05.762Z,73.60
2018-12-14T02:06:06.004Z,73.20
2018-12-14T02:07:05.353Z,73.00
2018-12-14T02:08:08.000Z,72.70
2018-12-14T02:09:05.133Z,72.70
2018-12-14T02:10:05.251Z,72.70
2018-12-14T02:11:05.377Z,72.70
2018-12-14T02:12:11.677Z,72.70
2018-12-14T02:13:08.442Z,72.60
2018-12-14T02:14:05.466Z,72.60
2018-12-14T02:15:05.634Z,72.70
2018-12-14T02:16:08.243Z,72.80
2018-12-14T02:17:05.292Z,72.80
2018-12-14T02:18:05.411Z,72.90
2018-12-14T02:19:05.543Z,73.10
2018-12-14T02:20:05.668Z,73.00
2018-12-14T02:21:11.064Z,73.10
2018-12-14T02:22:05.181Z,73.10
2018-12-14T02:23:10.397Z,73.30
2018-12-14T02:24:05.459Z,73.40
2018-12-14T02:25:08.117Z,73.50
2018-12-14T02:26:05.093Z,73.50
2018-12-14T02:27:05.243Z,73.70
2018-12-14T02:28:05.401Z,73.70
2018-12-14T02:29:07.635Z,73.80
2018-12-14T02:30:05.769Z,73.80
2018-12-14T02:31:05.934Z,73.90
2018-12-14T02:32:05.148Z,74.00
2018-12-14T02:33:08.040Z,73.80
2018-12-14T02:34:05.178Z,73.80
2018-12-14T02:35:05.383Z,73.70
2018-12-14T02:36:08.063Z,74.00
2018-12-14T02:37:05.309Z,74.00
2018-12-14T02:38:05.481Z,74.00
2018-12-14T02:39:05.609Z,74.10
2018-12-14T02:40:05.673Z,74.10
2018-12-14T02:41:05.790Z,74.10
2018-12-14T02:42:05.917Z,74.10
2018-12-14T02:43:05.138Z,74.20
2018-12-14T02:44:07.931Z,74.30
2018-12-14T02:45:06.018Z,74.40
2018-12-14T02:46:07.635Z,74.50
2018-12-14T02:47:10.773Z,74.50
2018-12-14T02:48:08.325Z,74.50
2018-12-14T02:49:07.885Z,74.50
2018-12-14T02:50:05.958Z,74.50
2018-12-14T02:51:05.370Z,74.50
2018-12-14T02:52:05.588Z,74.70
2018-12-14T02:53:05.725Z,74.80
2018-12-14T02:54:05.969Z,74.60
2018-12-14T02:55:07.833Z,74.50
2018-12-14T02:56:06.020Z,74.50
2018-12-14T02:57:05.298Z,74.70
2018-12-14T02:58:05.535Z,74.40
2018-12-14T02:59:05.698Z,74.20
2018-12-14T03:00:05.918Z,73.90
2018-12-14T03:01:05.585Z,73.80
2018-12-14T03:02:05.677Z,73.90
2018-12-14T03:03:13.421Z,73.60
2018-12-14T03:04:05.422Z,73.60
2018-12-14T03:05:05.542Z,73.40
2018-12-14T03:06:08.303Z,73.00
2018-12-14T03:07:07.801Z,73.10
2018-12-14T03:08:05.826Z,73.10
2018-12-14T03:09:06.075Z,72.90
2018-12-14T03:10:10.454Z,73.10
2018-12-14T03:11:05.517Z,73.10
2018-12-14T03:12:05.643Z,73.10
2018-12-14T03:13:06.013Z,73.00
2018-12-14T03:14:10.262Z,73.10
2018-12-14T03:15:05.356Z,73.10
2018-12-14T03:16:05.551Z,73.20
2018-12-14T03:17:05.775Z,73.20
2018-12-14T03:18:18.557Z,73.40
2018-12-14T03:19:05.519Z,73.30
2018-12-14T03:20:05.715Z,73.40
2018-12-14T03:21:05.884Z,73.50
2018-12-14T03:22:05.059Z,73.50
2018-12-14T03:23:05.176Z,73.60
2018-12-14T03:24:07.856Z,73.60
2018-12-14T03:25:05.854Z,73.60
2018-12-14T03:26:11.025Z,73.80
2018-12-14T03:27:07.619Z,74.00
2018-12-14T03:28:05.601Z,74.00
2018-12-14T03:29:05.126Z,74.10
2018-12-14T03:30:07.775Z,74.10
2018-12-14T03:31:05.868Z,74.00
2018-12-14T03:32:04.980Z,74.20
2018-12-14T03:33:07.870Z,74.40
2018-12-14T03:34:06.096Z,74.30
2018-12-14T03:35:05.231Z,74.40
2018-12-14T03:36:05.518Z,74.50
2018-12-14T03:37:05.820Z,74.50
2018-12-14T03:38:05.958Z,74.50
2018-12-14T03:39:07.638Z,74.40
2018-12-14T03:40:05.657Z,74.30
2018-12-14T03:41:08.367Z,74.20
2018-12-14T03:42:07.936Z,74.30
2018-12-14T03:43:13.528Z,74.20
2018-12-14T03:44:05.513Z,74.30
2018-12-14T03:45:05.709Z,74.20
2018-12-14T03:46:05.886Z,74.30
2018-12-14T03:47:05.025Z,74.40
2018-12-14T03:48:05.530Z,74.30
2018-12-14T03:49:10.770Z,74.30
2018-12-14T03:50:08.418Z,74.20
2018-12-14T03:51:10.468Z,74.10
2018-12-14T03:52:05.947Z,74.10
2018-12-14T03:53:05.161Z,74.00
2018-12-14T03:54:05.401Z,74.20
2018-12-14T03:55:08.107Z,74.20
2018-12-14T03:56:05.171Z,74.20
2018-12-14T03:57:07.877Z,74.10
2018-12-14T03:58:05.943Z,74.10
2018-12-14T03:59:07.635Z,74.10
2018-12-14T04:00:05.634Z,74.00
2018-12-14T04:01:05.969Z,73.90
2018-12-14T04:02:05.185Z,73.70
2018-12-14T04:03:05.404Z,73.60
2018-12-14T04:04:05.566Z,73.40
2018-12-14T04:05:08.217Z,73.20
2018-12-14T04:06:07.753Z,73.30
2018-12-14T04:07:05.858Z,73.30
2018-12-14T04:08:05.166Z,73.30
2018-12-14T04:09:05.369Z,73.60
2018-12-14T04:10:05.684Z,73.30
2018-12-14T04:11:06.008Z,73.30
2018-12-14T04:12:05.265Z,73.30
2018-12-14T04:13:05.429Z,73.30
2018-12-14T04:14:08.039Z,73.10
2018-12-14T04:15:05.091Z,73.10
2018-12-14T04:16:05.324Z,73.10
2018-12-14T04:17:08.081Z,73.30
2018-12-14T04:18:05.221Z,73.30
2018-12-14T04:19:07.905Z,73.20
2018-12-14T04:20:05.831Z,73.20
2018-12-14T04:21:05.994Z,73.20
2018-12-14T04:22:07.800Z,73.40
2018-12-14T04:23:08.396Z,73.50
2018-12-14T04:24:05.498Z,73.40
2018-12-14T04:25:05.775Z,73.50
2018-12-14T04:26:05.969Z,73.50
2018-12-14T04:27:05.157Z,73.60
2018-12-14T04:28:07.838Z,73.50
2018-12-14T04:29:05.838Z,73.50
2018-12-14T04:30:06.000Z,73.70
2018-12-14T04:31:07.824Z,73.70
2018-12-14T04:32:05.810Z,73.70
2018-12-14T04:33:06.034Z,73.80
2018-12-14T04:34:05.155Z,74.00
2018-12-14T04:35:05.271Z,73.90
2018-12-14T04:36:05.376Z,73.90
2018-12-14T04:37:08.457Z,74.00
2018-12-14T04:38:05.526Z,74.00
2018-12-14T04:39:08.237Z,74.00
2018-12-14T04:40:05.188Z,74.10
2018-12-14T04:41:05.290Z,74.10
2018-12-14T04:42:05.637Z,74.10
2018-12-14T04:43:08.329Z,74.30
2018-12-14T04:44:05.407Z,74.20
2018-12-14T04:45:08.226Z,74.20
2018-12-14T04:46:05.207Z,74.20
2018-12-14T04:47:07.995Z,74.30
2018-12-14T04:48:07.594Z,74.40
2018-12-14T04:49:05.665Z,74.30
2018-12-14T04:50:05.878Z,74.30
2018-12-14T04:51:07.475Z,73.80
2018-12-14T04:52:07.979Z,73.60
2018-12-14T04:53:05.967Z,73.60
2018-12-14T04:54:10.235Z,73.70
2018-12-14T04:55:05.262Z,73.70
2018-12-14T04:56:05.571Z,73.70
2018-12-14T04:57:05.793Z,73.60
2018-12-14T04:58:05.901Z,73.50
2018-12-14T04:59:07.508Z,73.40
2018-12-14T05:00:05.527Z,73.40
2018-12-14T05:01:08.221Z,73.20
2018-12-14T05:02:05.280Z,73.20
2018-12-14T05:03:05.548Z,73.10
2018-12-14T05:04:05.729Z,73.20
2018-12-14T05:05:08.387Z,73.00
2018-12-14T05:06:05.413Z,73.00
2018-12-14T05:07:05.509Z,72.80
2018-12-14T05:08:05.657Z,72.60
2018-12-14T05:09:05.817Z,72.30
2018-12-14T05:10:05.976Z,71.90
2018-12-14T05:11:05.094Z,72.00
2018-12-14T05:12:07.845Z,71.80
2018-12-14T05:13:05.867Z,71.80
2018-12-14T05:14:04.990Z,71.70
2018-12-14T05:15:07.881Z,71.80
2018-12-14T05:16:05.915Z,71.80
2018-12-14T05:17:07.685Z,71.50
2018-12-14T05:18:05.666Z,71.50
2018-12-14T05:19:08.423Z,70.90
2018-12-14T05:20:05.402Z,70.80
2018-12-14T05:21:05.603Z,70.80
2018-12-14T05:22:05.740Z,70.80
2018-12-14T05:23:08.591Z,70.80
2018-12-14T05:24:05.591Z,70.80
2018-12-14T05:25:08.755Z,70.30
2018-12-14T05:26:06.004Z,70.30
2018-12-14T05:27:05.352Z,70.10
2018-12-14T05:28:05.578Z,70.10
2018-12-14T05:29:05.218Z,70.20
2018-12-14T05:30:05.296Z,70.10
2018-12-14T05:31:05.456Z,69.90
2018-12-14T05:32:05.568Z,69.80
2018-12-14T05:33:08.200Z,69.80
2018-12-14T05:34:07.706Z,69.80
2018-12-14T05:35:08.153Z,69.80
2018-12-14T05:36:10.169Z,69.90
2018-12-14T05:37:05.206Z,69.90
2018-12-14T05:38:05.532Z,70.00
2018-12-14T05:39:05.760Z,70.00
2018-12-14T05:40:06.015Z,69.90
2018-12-14T05:41:07.681Z,70.00
2018-12-14T05:42:05.741Z,70.00
2018-12-14T05:43:08.430Z,70.30
2018-12-14T05:44:07.969Z,70.40
2018-12-14T05:45:08.471Z,70.30
2018-12-14T05:46:08.000Z,70.10
2018-12-14T05:47:06.013Z,70.10
2018-12-14T05:48:10.254Z,70.40
2018-12-14T05:49:07.722Z,70.30
2018-12-14T05:50:05.846Z,70.30
2018-12-14T05:51:05.048Z,70.30
2018-12-14T05:52:05.196Z,70.30
2018-12-14T05:53:07.920Z,70.30
2018-12-14T05:54:08.572Z,70.50
2018-12-14T05:55:05.767Z,70.50
2018-12-14T05:56:08.473Z,70.00
2018-12-14T05:57:07.962Z,70.00
2018-12-14T05:58:08.587Z,70.00
2018-12-14T05:59:05.706Z,70.00
2018-12-14T06:00:05.900Z,70.00
2018-12-14T06:01:07.551Z,70.10
2018-12-14T06:02:05.552Z,70.10
2018-12-14T06:03:05.792Z,69.90
2018-12-14T06:04:11.074Z,69.90
2018-12-14T06:05:05.237Z,69.90
2018-12-14T06:06:05.474Z,70.00
2018-12-14T06:07:05.710Z,69.90
2018-12-14T06:08:05.895Z,70.00
2018-12-14T06:09:05.043Z,70.10
2018-12-14T06:10:07.659Z,70.10
2018-12-14T06:11:05.762Z,70.10
2018-12-14T06:12:08.456Z,70.20
2018-12-14T06:13:09.559Z,70.20
2018-12-14T06:14:05.694Z,70.20
2018-12-14T06:15:08.754Z,70.10
2018-12-14T06:16:08.302Z,70.00
2018-12-14T06:17:07.828Z,69.80
2018-12-14T06:18:05.879Z,69.70
2018-12-14T06:19:07.730Z,69.60
2018-12-14T06:20:05.831Z,69.60
2018-12-14T06:21:08.515Z,69.60
2018-12-14T06:22:08.201Z,69.50
2018-12-14T06:23:05.175Z,69.50
2018-12-14T06:24:07.835Z,69.80
2018-12-14T06:25:05.872Z,69.80
2018-12-14T06:26:08.691Z,70.00
2018-12-14T06:27:05.898Z,69.90
2018-12-14T06:28:05.140Z,69.70
2018-12-14T06:29:05.363Z,69.80
2018-12-14T06:30:05.646Z,69.80
2018-12-14T06:31:08.402Z,69.70
2018-12-14T06:32:05.379Z,69.60
2018-12-14T06:33:05.462Z,69.40
2018-12-14T06:34:05.686Z,69.40
2018-12-14T06:35:08.380Z,68.80
2018-12-14T06:36:05.467Z,68.80
2018-12-14T06:37:05.532Z,68.60
2018-12-14T06:38:08.145Z,68.90
2018-12-14T06:39:07.627Z,69.10
2018-12-14T06:40:08.168Z,69.30
2018-12-14T06:41:07.794Z,69.50
2018-12-14T06:42:08.443Z,69.60
2018-12-14T06:43:05.581Z,69.60
2018-12-14T06:44:05.769Z,69.80
2018-12-14T06:45:05.932Z,70.00
2018-12-14T06:46:10.115Z,70.00
2018-12-14T06:47:07.641Z,70.00
2018-12-14T06:48:08.249Z,69.80
2018-12-14T06:49:07.867Z,69.50
2018-12-14T06:50:08.435Z,69.30
2018-12-14T06:51:05.502Z,69.30
2018-12-14T06:52:05.755Z,68.70
2018-12-14T06:53:05.922Z,68.40
2018-12-14T06:54:05.063Z,68.10
2018-12-14T06:55:07.690Z,68.20
2018-12-14T06:56:08.314Z,68.40
2018-12-14T06:57:07.842Z,68.40
2018-12-14T06:58:05.818Z,68.50
2018-12-14T06:59:07.642Z,68.00
2018-12-14T07:00:08.178Z,67.90
2018-12-14T07:01:05.110Z,67.90
2018-12-14T07:02:05.310Z,68.00
2018-12-14T07:03:05.510Z,68.00
2018-12-14T07:04:08.158Z,67.60
2018-12-14T07:05:07.621Z,67.60
2018-12-14T07:06:05.663Z,67.50
2018-12-14T07:07:05.856Z,67.50
2018-12-14T07:08:05.079Z,67.40
2018-12-14T07:09:05.284Z,67.20
2018-12-14T07:10:07.946Z,67.40
2018-12-14T07:11:05.996Z,67.30
2018-12-14T07:12:05.157Z,67.40
2018-12-14T07:13:07.897Z,67.80
2018-12-14T07:14:06.220Z,67.80
2018-12-14T07:15:05.379Z,68.00
2018-12-14T07:16:05.571Z,68.20
2018-12-14T07:17:08.204Z,68.40
2018-12-14T07:18:05.161Z,68.50
2018-12-14T07:19:05.332Z,68.60
2018-12-14T07:20:05.451Z,68.70
2018-12-14T07:21:05.553Z,68.60
2018-12-14T07:22:05.773Z,68.70
2018-12-14T07:23:05.901Z,68.70
2018-12-14T07:24:05.016Z,68.80
2018-12-14T07:25:07.812Z,68.90
2018-12-14T07:26:05.777Z,68.90
2018-12-14T07:27:05.896Z,68.80
2018-12-14T07:28:05.081Z,68.80
2018-12-14T07:29:05.721Z,68.90
2018-12-14T07:30:08.335Z,69.00
2018-12-14T07:31:05.325Z,69.00
2018-12-14T07:32:08.083Z,69.00
2018-12-14T07:33:05.251Z,68.90
2018-12-14T07:34:05.456Z,68.80
2018-12-14T07:35:05.582Z,68.90
2018-12-14T07:36:05.635Z,68.90
2018-12-14T07:37:05.931Z,69.00
2018-12-14T07:38:05.100Z,68.90
2018-12-14T07:39:07.794Z,69.10
2018-12-14T07:40:05.782Z,69.10
2018-12-14T07:41:08.524Z,68.90
2018-12-14T07:42:05.540Z,68.90
2018-12-14T07:43:05.694Z,69.10
2018-12-14T07:44:05.830Z,69.10
2018-12-14T07:45:05.936Z,69.20
2018-12-14T07:46:07.690Z,69.20
2018-12-14T07:47:11.913Z,69.20
2018-12-14T07:48:05.127Z,69.20
2018-12-14T07:49:07.904Z,69.10
2018-12-14T07:50:05.985Z,69.10
2018-12-14T07:51:05.196Z,69.10
2018-12-14T07:52:05.789Z,69.10
2018-12-14T07:53:10.222Z,69.30
2018-12-14T07:54:07.879Z,69.20
2018-12-14T07:55:06.018Z,69.20
2018-12-14T07:56:05.101Z,69.10
2018-12-14T07:57:05.316Z,69.20
2018-12-14T07:58:05.446Z,69.30
2018-12-14T07:59:05.499Z,69.30
2018-12-14T08:00:08.335Z,69.30
2018-12-14T08:01:05.342Z,69.30
2018-12-14T08:02:08.538Z,69.00
2018-12-14T08:03:08.050Z,68.90
2018-12-14T08:04:05.058Z,68.90
2018-12-14T08:05:07.684Z,69.00
2018-12-14T08:06:10.660Z,69.10
2018-12-14T08:07:05.620Z,69.10
2018-12-14T08:08:08.469Z,69.30
2018-12-14T08:09:08.089Z,69.40
2018-12-14T08:10:05.106Z,69.40
2018-12-14T08:11:10.241Z,69.50
2018-12-14T08:12:07.692Z,69.50
2018-12-14T08:13:05.774Z,69.50
2018-12-14T08:14:05.937Z,69.50
2018-12-14T08:15:11.945Z,69.30
2018-12-14T08:16:07.502Z,69.30
2018-12-14T08:17:05.679Z,69.30
2018-12-14T08:18:08.325Z,69.30
2018-12-14T08:19:06.802Z,69.30
2018-12-14T08:20:06.002Z,69.40
2018-12-14T08:21:05.145Z,69.40
2018-12-14T08:22:05.421Z,69.40
2018-12-14T08:23:08.200Z,69.40
2018-12-14T08:24:05.333Z,69.40
2018-12-14T08:25:05.471Z,69.50
2018-12-14T08:26:05.706Z,69.30
2018-12-14T08:27:05.917Z,69.30
2018-12-14T08:28:05.180Z,69.20
2018-12-14T08:29:05.389Z,69.20
2018-12-14T08:30:05.491Z,69.20
2018-12-14T08:31:05.808Z,69.30
2018-12-14T08:32:08.669Z,69.40
2018-12-14T08:33:08.230Z,69.40
2018-12-14T08:34:05.189Z,69.50
2018-12-14T08:35:05.228Z,69.50
2018-12-14T08:36:05.806Z,69.60
2018-12-14T08:37:06.006Z,69.60
2018-12-14T08:38:05.160Z,69.60
2018-12-14T08:39:05.292Z,69.50
2018-12-14T08:40:07.986Z,69.60
2018-12-14T08:41:05.175Z,69.60
2018-12-14T08:42:05.407Z,69.60
2018-12-14T08:43:05.523Z,69.60
2018-12-14T08:44:08.125Z,69.80
2018-12-14T08:45:05.137Z,69.80
2018-12-14T08:46:05.382Z,69.80
2018-12-14T08:47:05.561Z,69.40
2018-12-14T08:48:05.722Z,69.40
2018-12-14T08:49:05.794Z,69.40
2018-12-14T08:50:05.900Z,69.40
2018-12-14T08:51:06.005Z,69.40
2018-12-14T08:52:05.109Z,69.50
2018-12-14T08:53:07.859Z,69.70
2018-12-14T08:54:05.871Z,69.70
2018-12-14T08:55:06.029Z,69.50
2018-12-14T08:56:07.698Z,69.00
2018-12-14T08:57:05.851Z,69.10
2018-12-14T08:58:09.747Z,68.60
2018-12-14T08:59:05.676Z,68.60
2018-12-14T09:00:08.332Z,68.40
2018-12-14T09:01:08.064Z,68.30
2018-12-14T09:02:07.655Z,68.30
2018-12-14T09:03:08.247Z,68.10
2018-12-14T09:04:05.424Z,68.20
2018-12-14T09:05:05.698Z,68.20
2018-12-14T09:06:05.856Z,67.80
2018-12-14T09:07:05.972Z,67.30
2018-12-14T09:08:05.118Z,67.20
2018-12-14T09:09:05.208Z,67.20
2018-12-14T09:10:07.822Z,66.50
2018-12-14T09:11:05.933Z,66.40
2018-12-14T09:12:05.218Z,66.30
2018-12-14T09:13:05.401Z,66.40
2018-12-14T09:14:08.104Z,66.60
2018-12-14T09:15:05.267Z,66.60
2018-12-14T09:16:08.056Z,66.70
2018-12-14T09:17:05.122Z,66.70
2018-12-14T09:18:05.884Z,66.80
2018-12-14T09:19:06.003Z,66.90
2018-12-14T09:20:05.079Z,66.80
2018-12-14T09:21:07.701Z,66.50
2018-12-14T09:22:08.346Z,66.50
2018-12-14T09:23:07.837Z,66.40
2018-12-14T09:24:05.824Z,66.40
2018-12-14T09:25:05.873Z,66.40
2018-12-14T09:26:08.607Z,65.70
2018-12-14T09:27:05.616Z,65.70
2018-12-14T09:28:05.788Z,65.60
2018-12-14T09:29:05.224Z,65.20
2018-12-14T09:30:05.363Z,65.20
2018-12-14T09:31:05.926Z,65.10
2018-12-14T09:32:05.116Z,65.20
2018-12-14T09:33:07.842Z,65.00
2018-12-14T09:34:05.898Z,65.00
2018-12-14T09:35:05.148Z,64.90
2018-12-14T09:36:05.281Z,64.80
2018-12-14T09:37:05.489Z,64.70
2018-12-14T09:38:05.626Z,64.80
2018-12-14T09:39:05.735Z,64.90
2018-12-14T09:40:05.824Z,65.10
2018-12-14T09:41:08.412Z,65.40
2018-12-14T09:42:05.389Z,65.40
2018-12-14T09:43:05.649Z,65.30
2018-12-14T09:44:05.897Z,65.40
2018-12-14T09:45:05.211Z,65.60
2018-12-14T09:46:05.409Z,65.50
2018-12-14T09:47:08.148Z,65.40
2018-12-14T09:48:05.262Z,65.30
2018-12-14T09:49:08.015Z,65.60
2018-12-14T09:50:07.624Z,65.80
2018-12-14T09:51:12.041Z,65.80
2018-12-14T09:52:10.388Z,65.80
2018-12-14T09:53:05.314Z,65.80
2018-12-14T09:54:05.424Z,65.90
2018-12-14T09:55:08.077Z,65.50
2018-12-14T09:56:07.603Z,65.10
2018-12-14T09:57:05.627Z,65.10
2018-12-14T09:58:05.762Z,65.20
2018-12-14T09:59:05.914Z,65.30
2018-12-14T10:00:07.725Z,65.30
2018-12-14T10:01:08.285Z,64.60
2018-12-14T10:02:07.757Z,64.30
2018-12-14T10:03:05.930Z,64.20
2018-12-14T10:04:05.098Z,64.20
2018-12-14T10:05:07.819Z,64.10
2018-12-14T10:06:05.919Z,64.10
2018-12-14T10:07:05.100Z,64.00
2018-12-14T10:08:05.281Z,63.90
2018-12-14T10:09:05.429Z,63.80
2018-12-14T10:10:05.565Z,64.00
2018-12-14T10:11:05.681Z,64.10
2018-12-14T10:12:05.785Z,64.00
2018-12-14T10:13:05.894Z,64.10
2018-12-14T10:14:07.533Z,64.50
2018-12-14T10:15:05.605Z,64.40
2018-12-14T10:16:08.197Z,64.80
2018-12-14T10:17:07.677Z,64.80
2018-12-14T10:18:05.852Z,64.90
2018-12-14T10:19:05.070Z,65.00
2018-12-14T10:20:05.179Z,64.70
2018-12-14T10:21:07.816Z,64.40
2018-12-14T10:22:10.876Z,64.20
2018-12-14T10:23:05.878Z,64.20
2018-12-14T10:24:05.247Z,64.10
2018-12-14T10:25:05.443Z,63.80
2018-12-14T10:26:05.597Z,63.70
2018-12-14T10:27:05.895Z,63.80
2018-12-14T10:28:05.041Z,63.80
2018-12-14T10:29:05.715Z,63.80
2018-12-14T10:30:08.401Z,64.00
2018-12-14T10:31:05.484Z,64.00
2018-12-14T10:32:08.150Z,64.30
2018-12-14T10:33:05.124Z,64.30
2018-12-14T10:34:05.384Z,64.50
2018-12-14T10:35:05.496Z,64.40
2018-12-14T10:36:08.253Z,63.40
2018-12-14T10:37:05.237Z,63.20
2018-12-14T10:38:07.880Z,63.10
2018-12-14T10:39:08.414Z,63.10
2018-12-14T10:40:07.954Z,63.30
2018-12-14T10:41:06.058Z,63.30
2018-12-14T10:42:05.315Z,63.50
2018-12-14T10:43:05.487Z,63.70
2018-12-14T10:44:08.080Z,63.80
2018-12-14T10:45:07.780Z,63.60
2018-12-14T10:46:05.901Z,63.70
2018-12-14T10:47:05.224Z,63.70
2018-12-14T10:48:05.497Z,63.80
2018-12-14T10:49:08.360Z,64.10
2018-12-14T10:50:07.966Z,64.30
2018-12-14T10:51:05.057Z,64.20
2018-12-14T10:52:05.230Z,64.50
2018-12-14T10:53:05.344Z,64.60
2018-12-14T10:54:05.541Z,64.70
2018-12-14T10:55:05.660Z,64.80
2018-12-14T10:56:05.807Z,64.60
2018-12-14T10:57:05.876Z,64.50
2018-12-14T10:58:11.030Z,64.60
2018-12-14T10:59:06.021Z,64.60
2018-12-14T11:00:05.172Z,64.50
2018-12-14T11:01:05.312Z,63.80
2018-12-14T11:02:05.447Z,63.50
2018-12-14T11:03:08.030Z,63.90
2018-12-14T11:04:05.039Z,64.00
2018-12-14T11:05:05.238Z,64.20
2018-12-14T11:06:05.450Z,64.30
2018-12-14T11:07:10.634Z,64.20
2018-12-14T11:08:05.623Z,64.20
2018-12-14T11:09:08.278Z,64.10
2018-12-14T11:10:07.903Z,64.00
2018-12-14T11:11:06.075Z,63.90
2018-12-14T11:12:05.367Z,63.40
2018-12-14T11:13:05.544Z,63.40
2018-12-14T11:14:14.308Z,63.90
2018-12-14T11:15:05.420Z,63.90
2018-12-14T11:16:05.618Z,64.10
2018-12-14T11:17:05.861Z,64.10
2018-12-14T11:18:08.489Z,64.20
2018-12-14T11:19:05.526Z,64.30
2018-12-14T11:20:08.340Z,64.40
2018-12-14T11:21:05.345Z,64.30
2018-12-14T11:22:05.419Z,64.30
2018-12-14T11:23:05.585Z,64.40
2018-12-14T11:24:05.805Z,64.30
2018-12-14T11:25:06.016Z,63.40
2018-12-14T11:26:07.646Z,62.60
2018-12-14T11:27:05.674Z,62.60
2018-12-14T11:28:05.834Z,62.80
2018-12-14T11:29:07.838Z,62.30
2018-12-14T11:30:08.331Z,62.50
2018-12-14T11:31:07.819Z,62.40
2018-12-14T11:32:08.386Z,62.60
2018-12-14T11:33:05.430Z,62.60
2018-12-14T11:34:05.573Z,62.20
2018-12-14T11:35:05.661Z,61.30
2018-12-14T11:36:05.790Z,61.10
2018-12-14T11:37:06.015Z,61.00
2018-12-14T11:38:05.173Z,61.20
2018-12-14T11:39:10.372Z,61.40
2018-12-14T11:40:05.311Z,61.40
2018-12-14T11:41:05.545Z,61.80
2018-12-14T11:42:05.725Z,62.10
2018-12-14T11:43:05.964Z,62.20
2018-12-14T11:44:05.099Z,62.20
2018-12-14T11:45:05.184Z,62.20
2018-12-14T11:46:05.280Z,61.90
2018-12-14T11:47:08.001Z,61.80
2018-12-14T11:48:06.028Z,61.70
2018-12-14T11:49:08.232Z,61.60
2018-12-14T11:50:05.310Z,61.60
2018-12-14T11:51:05.621Z,61.70
2018-12-14T11:52:05.944Z,61.70
2018-12-14T11:53:07.716Z,61.90
2018-12-14T11:54:05.729Z,61.90
2018-12-14T11:55:05.822Z,61.80
2018-12-14T11:56:05.953Z,62.00
2018-12-14T11:57:05.136Z,61.80
2018-12-14T11:58:05.258Z,61.60
2018-12-14T11:59:05.393Z,61.80
2018-12-14T12:00:08.091Z,61.40
2018-12-14T12:01:05.114Z,61.40
2018-12-14T12:02:05.252Z,61.60
2018-12-14T12:03:05.431Z,61.40
2018-12-14T12:04:05.466Z,61.30
2018-12-14T12:05:08.067Z,61.50
2018-12-14T12:06:05.126Z,61.50
2018-12-14T12:07:05.573Z,61.50
2018-12-14T12:08:08.262Z,61.80
2018-12-14T12:09:05.329Z,61.80
2018-12-14T12:10:08.031Z,61.90
2018-12-14T12:11:05.213Z,61.90
2018-12-14T12:12:10.614Z,62.20
2018-12-14T12:13:08.314Z,62.60
2018-12-14T12:14:05.350Z,62.60
2018-12-14T12:15:07.969Z,62.60
2018-12-14T12:16:06.121Z,62.60
2018-12-14T12:17:05.387Z,62.70
2018-12-14T12:18:08.169Z,62.70
2018-12-14T12:19:05.264Z,62.70
2018-12-14T12:20:05.440Z,62.40
2018-12-14T12:21:08.058Z,62.00
2018-12-14T12:22:04.993Z,61.90
2018-12-14T12:23:07.995Z,61.00
2018-12-14T12:24:05.958Z,61.00
2018-12-14T12:25:05.160Z,60.20
2018-12-14T12:26:07.805Z,60.40
2018-12-14T12:27:05.799Z,60.40
2018-12-14T12:28:05.987Z,60.80
2018-12-14T12:29:05.394Z,61.00
2018-12-14T12:30:05.545Z,61.40
2018-12-14T12:31:05.707Z,61.50
2018-12-14T12:32:05.839Z,61.40
2018-12-14T12:33:08.456Z,61.40
2018-12-14T12:34:05.570Z,61.40
2018-12-14T12:35:08.532Z,61.90
2018-12-14T12:36:05.650Z,61.90
2018-12-14T12:37:05.835Z,62.10
2018-12-14T12:38:05.985Z,62.20
2018-12-14T12:39:07.659Z,62.40
2018-12-14T12:40:05.938Z,62.40
2018-12-14T12:41:05.083Z,62.60
2018-12-14T12:42:05.309Z,62.40
2018-12-14T12:43:05.532Z,62.40
2018-12-14T12:44:05.718Z,62.60
2018-12-14T12:45:05.908Z,62.70
2018-12-14T12:46:05.040Z,62.90
2018-12-14T12:47:05.220Z,63.10
2018-12-14T12:48:08.072Z,63.70
2018-12-14T12:49:05.125Z,63.40
2018-12-14T12:50:05.693Z,63.50
2018-12-14T12:51:08.353Z,63.70
2018-12-14T12:52:05.531Z,63.70